Quincy, IL

5:49 PM CDT on May 30, 2015 (GMT -0500)
Keokuk Municipal | | Change Station
CLOSE
Current Station
Airport
Location: Keokuk,
Elevation: 673 ft
Nearby Weather Stations

Elev 673 ft 40.46 °N, 91.43 °W | Updated 14 minutes ago

Overcast
Overcast
63 °F
Feels Like 63 °F
N
10
Wind Variable Wind from North
Gusts 22 mph

Today
High -- | Low -- °F
--% Chance of Precip.
Yesterday
High -- | Low -- °F
Precip. -- in
5:39 AM 8:26 PM
Waxing Gibbous, 92% visible
Pressure 30.01 in
Visibility 5.0 miles
Clouds Mostly Cloudy 900 ft
Overcast 1400 ft
Dew Point 61 °F
Humidity 94%
Rainfall 0.28 in
Snow Depth Not available.
UV 1 out of 12
Pollen 3.10 out of 12
Air Quality Not available.
Flu Activity Sporadic
METAR KEOK 302235Z AUTO 36009G19KT 5SM BR BKN009 OVC014 17/16 A3001 RMK AO2

More Conditions Fewer Conditions

Pressure 30.01 in
Visibility 5.0 miles
Clouds Mostly Cloudy 900 ft
Overcast 1400 ft
Dew Point 61 °F
Humidity 94%
Rainfall 0.28 in
Snow Depth Not available.
UV 1 out of 12
Pollen 3.10 out of 12
Air Quality Not available.
Flu Activity Sporadic
METAR KEOK 302235Z AUTO 36009G19KT 5SM BR BKN009 OVC014 17/16 A3001 RMK AO2

More Conditions Fewer Conditions

10-Day Weather Forecast

Almanac

Astronomy

May. 30, 2015 Rise Set
Actual Time
Civil Twilight
Nautical Twilight
Astronomical Twilight
Moon
Length of Visible Light
Length of Day
Tomorrow will be .
, % of the Moon is Illuminated

Today's Extremes

State Highs State Lows

Community

WunderPhotos

Upload Photos

1,825,609 photos uploaded!

WunderBlogs® & News

Nearby

Air Quality

  Air Quality AQ Index Pollutant
Not available.

Snow Depth

Station Depth Elevation

Earthquake Activity

City Distance Mag. Time & Date
Minimum magnitude displayed is 2.5.

Coastal Water Temperatures

Place Temperature

Stations

Nearby Weather Stations

Station Location Temp. Windchill Dew Point Humidity Wind Precip. Elev Updated Type